Time;durP1;ratioP1;P1;durP2;ratioP2;P2;SDS_P1;SDS_P2;PMS_P1;PMS_P2;Temp;Humidity;BMP_temperature;BMP_pressure;BME280_temperature;BME280_humidity;BME280_pressure;Samples;Min_cycle;Max_cycle;Signal;HPM_P1;HPM_P2
2023/05/08 00:01:32;;;;;;;9.30;5.40;;;15.10;90.10;;;15.29;56.98;95132.53;5041089;28;20543;-55
2023/05/08 00:03:59;;;;;;;4.80;4.33;;;15.00;90.30;;;15.28;57.35;95122.09;5042668;28;20884;-55
2023/05/08 00:06:27;;;;;;;7.20;4.50;;;15.00;90.60;;;15.24;57.45;95126.88;5036532;28;20453;-65
2023/05/08 00:08:54;;;;;;;5.97;5.20;;;15.00;90.80;;;15.20;57.24;95121.06;5039547;28;20998;-66
2023/05/08 00:11:23;;;;;;;8.13;5.47;;;14.90;90.80;;;15.16;57.69;95117.06;5036694;28;20797;-58
2023/05/08 00:13:50;;;;;;;5.97;5.40;;;14.90;91.10;;;15.14;57.95;95123.53;5033474;28;20460;-56
2023/05/08 00:16:17;;;;;;;9.87;5.57;;;14.90;91.40;;;15.11;58.04;95124.69;5038788;28;20854;-57
2023/05/08 00:18:45;;;;;;;13.40;5.97;;;14.80;91.90;;;15.06;57.93;95130.47;5033794;28;20588;-65
2023/05/08 00:21:12;;;;;;;7.77;5.97;;;14.80;91.80;;;15.01;57.87;95130.13;5036940;28;20810;-55
2023/05/08 00:23:40;;;;;;;7.67;6.07;;;14.80;91.90;;;14.95;58.05;95127.28;5037636;28;20473;-55
2023/05/08 00:26:07;;;;;;;8.00;5.77;;;14.70;92.10;;;14.90;58.14;95133.06;5037170;28;20456;-55
2023/05/08 00:28:36;;;;;;;5.50;4.80;;;14.70;92.30;;;14.87;57.84;95143.97;5037172;28;20479;-65
2023/05/08 00:31:03;;;;;;;8.30;5.87;;;14.60;92.30;;;14.83;58.13;95138.16;5035693;28;20461;-57
2023/05/08 00:33:30;;;;;;;5.93;4.87;;;14.60;92.40;;;14.79;58.28;95138.66;5036123;28;21007;-57
2023/05/08 00:36:01;;;;;;;11.53;5.03;;;14.50;92.70;;;14.77;58.46;95138.81;5037329;28;20903;-55
2023/05/08 00:38:30;;;;;;;7.97;5.70;;;14.50;93.10;;;14.75;58.87;95140.78;5035048;28;20499;-65
2023/05/08 00:40:57;;;;;;;6.40;5.00;;;14.50;93.60;;;14.73;58.50;95139.28;5035028;28;20463;-66
2023/05/08 00:43:27;;;;;;;11.83;6.07;;;14.50;93.50;;;14.70;59.17;95133.31;5032839;28;21295;-56
2023/05/08 00:45:55;;;;;;;6.07;4.90;;;14.40;93.90;;;14.68;58.98;95137.94;5037847;28;20933;-65
2023/05/08 00:48:23;;;;;;;5.30;4.90;;;14.40;93.90;;;14.67;59.22;95144.22;5033465;28;20484;-57
2023/05/08 00:50:50;;;;;;;4.47;4.10;;;14.40;94.40;;;14.66;59.47;95141.75;5035421;28;20498;-65
2023/05/08 00:53:18;;;;;;;15.73;5.20;;;14.40;94.60;;;14.65;59.65;95143.53;5034488;28;20563;-66
2023/05/08 00:55:45;;;;;;;6.90;4.80;;;14.40;94.80;;;14.64;59.81;95147.19;5038348;28;20461;-58
2023/05/08 00:58:12;;;;;;;9.87;5.30;;;14.40;95.00;;;14.64;59.45;95151.63;5035276;28;20494;-56
2023/05/08 01:00:40;;;;;;;7.33;5.23;;;14.40;95.10;;;14.61;59.82;95150.16;5034386;28;20522;-56
2023/05/08 01:03:09;;;;;;;7.37;5.30;;;14.40;95.30;;;14.61;59.44;95152.81;5038294;28;20480;-65
2023/05/08 01:05:36;;;;;;;6.70;5.77;;;14.40;95.40;;;14.59;59.85;95154.72;5039188;28;20775;-56
2023/05/08 01:08:03;;;;;;;7.67;5.80;;;14.30;95.70;;;14.58;59.91;95153.09;5036649;28;20472;-56
2023/05/08 01:10:38;;;;;;;5.87;4.37;;;14.30;95.60;;;14.57;59.59;95151.41;5038047;28;20460;-65
2023/05/08 01:13:11;;;;;;;5.27;4.77;;;14.30;95.70;;;14.55;59.93;95158.69;5033231;28;20522;-55
2023/05/08 01:15:43;;;;;;;6.60;5.90;;;14.30;96.20;;;14.56;59.93;95157.69;5034155;28;20456;-55
2023/05/08 01:18:14;;;;;;;10.60;5.73;;;14.30;96.10;;;14.53;60.21;95156.22;5036800;28;20874;-56
2023/05/08 01:20:48;;;;;;;9.17;5.27;;;14.30;96.10;;;14.51;60.15;95159.97;5032962;28;21062;-56
2023/05/08 01:24:19;;;;;;;17.33;5.53;;;14.30;96.10;;;14.48;60.26;95157.66;5030499;28;20484;-65
2023/05/08 01:27:52;;;;;;;5.43;4.93;;;14.20;96.10;;;14.40;60.50;95147.84;5036711;28;20936;-56
2023/05/08 01:30:55;;;;;;;5.90;5.17;;;14.20;96.50;;;14.36;61.06;95154.47;5030476;28;20981;-57
2023/05/08 01:33:26;;;;;;;5.30;4.60;;;14.10;96.70;;;14.33;60.20;95147.66;5007174;28;20618;-55
2023/05/08 01:36:00;;;;;;;13.07;5.40;;;14.10;96.50;;;14.27;60.84;95142.16;5031641;28;20452;-56
2023/05/08 01:38:32;;;;;;;5.93;5.20;;;14.00;97.00;;;14.26;60.78;95143.97;5031036;28;20483;-66
2023/05/08 01:41:05;;;;;;;5.40;4.90;;;14.00;96.90;;;14.24;60.57;95142.47;5029395;28;20451;-56
2023/05/08 01:43:45;;;;;;;7.10;5.93;;;14.00;97.00;;;14.22;60.60;95141.78;5031300;28;20484;-65
2023/05/08 01:46:17;;;;;;;11.83;5.70;;;14.00;97.10;;;14.20;60.60;95141.13;5033462;28;20436;-57
2023/05/08 01:48:49;;;;;;;5.63;5.13;;;14.00;97.30;;;14.18;60.59;95137.81;5036683;28;20475;-56
2023/05/08 01:51:19;;;;;;;8.43;4.83;;;13.90;97.30;;;14.17;60.69;95139.59;5034771;28;20833;-56
2023/05/08 01:53:49;;;;;;;5.70;5.20;;;13.90;97.40;;;14.15;60.79;95146.88;5033499;28;20477;-66
2023/05/08 01:56:19;;;;;;;6.80;5.57;;;13.90;97.40;;;14.11;61.02;95138.44;5036195;28;20447;-56
2023/05/08 01:58:46;;;;;;;12.83;6.13;;;13.90;97.60;;;14.07;60.86;95136.25;5034432;28;20504;-55
2023/05/08 02:01:13;;;;;;;6.70;4.80;;;13.80;97.50;;;14.04;61.15;95141.84;5038926;28;20452;-64
2023/05/08 02:03:41;;;;;;;9.17;6.17;;;13.80;97.60;;;14.02;61.35;95138.50;5034897;28;20477;-56
2023/05/08 02:06:10;;;;;;;7.90;5.00;;;13.80;97.90;;;13.99;61.11;95140.47;5036040;28;20461;-65
2023/05/08 02:08:37;;;;;;;12.47;5.97;;;13.80;97.90;;;13.99;61.28;95139.66;5036046;28;20506;-57
2023/05/08 02:11:05;;;;;;;6.03;5.37;;;13.80;98.00;;;13.98;61.31;95141.44;5036623;28;20582;-66
2023/05/08 02:13:32;;;;;;;12.47;6.90;;;13.80;98.00;;;13.97;61.39;95139.81;5040787;28;20884;-55
2023/05/08 02:15:59;;;;;;;7.40;5.97;;;13.70;98.00;;;13.96;61.03;95150.53;5033844;28;20452;-66
2023/05/08 02:18:26;;;;;;;5.90;4.53;;;13.70;98.00;;;13.94;61.32;95148.06;5036184;28;20496;-56
2023/05/08 02:20:55;;;;;;;8.77;5.83;;;13.70;98.10;;;13.92;61.04;95139.41;5035561;28;20448;-56
2023/05/08 02:23:25;;;;;;;6.90;5.60;;;13.70;97.90;;;13.91;61.19;95148.34;5033726;28;20480;-55
2023/05/08 02:25:52;;;;;;;5.60;5.10;;;13.70;98.00;;;13.89;61.22;95150.31;5036101;28;20456;-66
2023/05/08 02:28:19;;;;;;;8.87;5.80;;;13.70;98.00;;;13.88;61.17;95150.47;5037032;28;20541;-66
2023/05/08 02:30:47;;;;;;;8.80;5.27;;;13.70;98.10;;;13.84;61.22;95152.59;5033938;28;20568;-55
2023/05/08 02:33:14;;;;;;;5.27;4.73;;;13.60;98.20;;;13.81;61.12;95148.44;5036216;28;20467;-57
2023/05/08 02:35:43;;;;;;;9.50;5.67;;;13.60;98.00;;;13.78;61.07;95148.72;5034923;28;20456;-65
2023/05/08 02:38:11;;;;;;;9.53;5.40;;;13.60;98.10;;;13.75;60.94;95153.50;5037321;28;20492;-65
2023/05/08 02:40:44;;;;;;;5.83;5.20;;;13.50;98.10;;;13.72;61.09;95149.34;5036309;28;20451;-56
2023/05/08 02:43:11;;;;;;;5.60;5.10;;;13.50;98.20;;;13.70;61.13;95156.59;5035975;28;20465;-65
2023/05/08 02:45:43;;;;;;;7.30;5.57;;;13.50;98.20;;;13.70;61.52;95158.44;5035860;28;20559;-55
2023/05/08 02:48:14;;;;;;;7.07;5.50;;;13.50;98.40;;;13.68;61.79;95161.22;5033690;28;20537;-55
2023/05/08 02:50:45;;;;;;;6.93;5.00;;;13.50;98.50;;;13.65;61.47;95150.09;5036343;28;20431;-56
2023/05/08 02:53:20;;;;;;;5.93;5.33;;;13.40;98.40;;;13.62;61.76;95161.81;5035041;28;20503;-57
2023/05/08 02:55:50;;;;;;;15.33;5.60;;;13.40;98.70;;;13.61;61.81;95162.78;5030855;28;20533;-66
2023/05/08 02:58:20;;;;;;;6.47;4.97;;;13.40;98.60;;;13.58;61.69;95156.00;5034883;28;20532;-68
2023/05/08 03:00:50;;;;;;;6.30;5.67;;;13.40;98.80;;;13.59;61.75;95162.94;5033992;28;20660;-57
2023/05/08 03:03:22;;;;;;;5.77;5.17;;;13.40;98.80;;;13.61;61.55;95160.16;5034456;28;20529;-66
2023/05/08 03:05:53;;;;;;;5.97;5.37;;;13.40;99.10;;;13.61;61.85;95154.88;5034861;28;21016;-66
2023/05/08 03:08:26;;;;;;;6.00;5.40;;;13.40;98.80;;;13.63;61.77;95151.09;5036309;28;20467;-66
2023/05/08 03:10:56;;;;;;;5.60;5.03;;;13.40;98.80;;;13.66;61.73;95159.69;5035252;28;20497;-68
2023/05/08 03:13:24;;;;;;;16.43;4.97;;;13.40;98.80;;;13.67;61.68;95158.72;5040457;28;21220;-56
2023/05/08 03:15:55;;;;;;;7.00;4.57;;;13.40;98.80;;;13.67;61.68;95156.09;5039965;28;20455;-68
2023/05/08 03:18:24;;;;;;;7.53;5.50;;;13.40;98.80;;;13.69;61.94;95159.41;5039176;28;20578;-65
2023/05/08 03:20:54;;;;;;;5.73;5.20;;;13.50;98.90;;;13.69;61.67;95167.31;5039152;28;20452;-55
2023/05/08 03:23:22;;;;;;;5.50;3.80;;;13.50;98.90;;;13.70;61.46;95161.88;5040592;28;20475;-55
2023/05/08 03:25:49;;;;;;;7.30;5.20;;;13.50;98.80;;;13.70;61.51;95164.53;5039577;28;20997;-56
2023/05/08 03:28:18;;;;;;;5.67;4.60;;;13.50;98.80;;;13.72;61.92;95159.09;5040984;28;20551;-66
2023/05/08 03:30:45;;;;;;;6.43;5.00;;;13.50;99.10;;;13.73;62.00;95166.88;5034730;28;20459;-56
2023/05/08 03:33:12;;;;;;;6.30;5.13;;;13.50;99.10;;;13.75;62.11;95166.72;5040587;28;20479;-55
2023/05/08 03:35:40;;;;;;;12.13;5.17;;;13.50;99.30;;;13.76;61.78;95163.09;5039819;28;20577;-57
2023/05/08 03:38:07;;;;;;;8.13;5.40;;;13.60;99.30;;;13.78;62.04;95172.53;5041639;28;20498;-66
2023/05/08 03:40:37;;;;;;;9.00;5.30;;;13.60;99.20;;;13.79;62.00;95160.97;5039901;28;20535;-65
2023/05/08 03:43:06;;;;;;;13.07;5.30;;;13.50;99.30;;;13.83;62.01;95166.78;5039995;28;21077;-56
2023/05/08 03:45:37;;;;;;;6.10;5.20;;;13.60;99.20;;;13.85;61.82;95166.63;5039356;28;20539;-56
2023/05/08 03:48:05;;;;;;;8.07;5.03;;;13.60;99.10;;;13.88;61.33;95163.69;5034897;28;20466;-63
2023/05/08 03:50:32;;;;;;;13.97;6.70;;;13.60;98.90;;;13.91;61.44;95169.50;5038399;28;20472;-56
2023/05/08 03:52:59;;;;;;;6.53;4.80;;;13.70;98.90;;;13.95;61.61;95165.56;5039542;28;20483;-66
2023/05/08 03:55:27;;;;;;;15.93;5.00;;;13.70;98.90;;;13.99;61.75;95172.22;5039148;28;20448;-65
2023/05/08 03:57:59;;;;;;;8.87;5.30;;;13.80;99.20;;;14.05;61.84;95175.22;5039445;28;20482;-56
2023/05/08 04:00:34;;;;;;;8.40;5.70;;;13.80;99.30;;;14.09;61.78;95171.28;5038059;28;20479;-66
2023/05/08 04:03:14;;;;;;;6.80;4.70;;;13.80;99.30;;;14.11;62.04;95175.47;5035885;28;20476;-57
2023/05/08 04:05:48;;;;;;;8.17;5.33;;;13.90;99.30;;;14.16;61.51;95177.63;5036985;28;20530;-57
2023/05/08 04:08:19;;;;;;;13.33;6.10;;;13.90;99.20;;;14.20;61.54;95173.69;5035599;28;20477;-66
2023/05/08 04:10:49;;;;;;;28.97;5.13;;;13.90;99.00;;;14.23;61.33;95173.38;5036799;28;20525;-55
2023/05/08 04:13:19;;;;;;;9.23;5.47;;;14.00;99.10;;;14.29;61.37;95183.34;5033630;28;20483;-57
2023/05/08 04:15:51;;;;;;;13.23;6.33;;;14.00;99.10;;;14.33;61.35;95178.59;5034858;28;20948;-67
2023/05/08 04:18:25;;;;;;;17.27;5.50;;;14.10;99.10;;;14.37;61.55;95185.22;5038022;28;20469;-67
2023/05/08 04:20:52;;;;;;;9.73;5.43;;;14.10;99.10;;;14.41;61.34;95188.41;5032217;28;20796;-65
2023/05/08 04:23:20;;;;;;;13.20;6.10;;;14.10;99.00;;;14.45;61.02;95187.06;5032034;28;20468;-56
2023/05/08 04:25:48;;;;;;;10.07;5.80;;;14.20;99.10;;;14.50;61.21;95190.94;5035843;28;20464;-56
2023/05/08 04:28:15;;;;;;;14.07;5.10;;;14.20;99.20;;;14.56;61.19;95189.44;5040070;28;20529;-56
2023/05/08 04:30:43;;;;;;;9.77;6.13;;;14.30;99.10;;;14.61;61.27;95187.22;5038232;28;21402;-56
2023/05/08 04:33:10;;;;;;;10.10;5.47;;;14.30;99.00;;;14.68;61.07;95188.22;5037125;28;20826;-66
2023/05/08 04:35:39;;;;;;;11.47;5.90;;;14.40;99.00;;;14.75;60.79;95187.59;5037176;28;20460;-64
2023/05/08 04:38:06;;;;;;;5.60;4.97;;;14.40;98.80;;;14.79;60.73;95189.78;5035320;28;20556;-56
2023/05/08 04:40:34;;;;;;;13.13;6.37;;;14.50;98.70;;;14.84;60.95;95182.22;5032687;28;20476;-56
2023/05/08 04:43:01;;;;;;;11.33;5.00;;;14.60;98.70;;;14.91;60.57;95181.56;5037381;28;21147;-56
2023/05/08 04:45:28;;;;;;;12.40;6.33;;;14.60;98.50;;;14.98;60.38;95172.84;5039269;28;20563;-57
2023/05/08 04:47:55;;;;;;;11.90;5.77;;;14.70;98.40;;;15.06;60.19;95179.97;5027324;28;20477;-56
2023/05/08 04:50:23;;;;;;;10.53;6.60;;;14.80;98.40;;;15.11;60.04;95171.56;5037894;28;20460;-60
2023/05/08 04:52:52;;;;;;;8.03;6.23;;;14.80;98.10;;;15.16;59.77;95177.19;5036878;28;20556;-58
2023/05/08 04:55:19;;;;;;;8.37;6.70;;;14.90;98.10;;;15.19;59.37;95177.69;5031758;28;20448;-57
2023/05/08 04:57:46;;;;;;;9.70;6.70;;;14.90;97.70;;;15.23;59.28;95176.38;5035025;28;20468;-57
2023/05/08 05:00:15;;;;;;;17.47;6.63;;;15.00;97.60;;;15.29;59.54;95172.28;5039009;28;20922;-66
2023/05/08 05:02:42;;;;;;;17.40;8.23;;;15.00;97.70;;;15.36;59.62;95173.28;5036068;28;20894;-55
2023/05/08 05:05:10;;;;;;;14.90;7.73;;;15.10;97.80;;;15.41;59.66;95173.63;5037323;28;20457;-58
2023/05/08 05:07:37;;;;;;;7.30;6.60;;;15.10;97.90;;;15.48;59.57;95165.03;5031839;28;20545;-66
2023/05/08 05:10:07;;;;;;;21.37;7.63;;;15.20;97.90;;;15.55;59.42;95163.38;5035425;28;20530;-66
2023/05/08 05:12:34;;;;;;;7.60;6.90;;;15.20;97.70;;;15.62;59.30;95163.56;5040088;28;20468;-56
2023/05/08 05:15:01;;;;;;;10.50;6.93;;;15.30;97.70;;;15.72;59.26;95159.78;5037226;28;20461;-71
2023/05/08 05:17:30;;;;;;;24.47;7.10;;;15.40;97.60;;;15.82;58.80;95162.28;5037932;28;21050;-74
2023/05/08 05:19:57;;;;;;;10.23;7.07;;;15.50;97.40;;;15.95;58.52;95164.44;5036944;28;20550;-75
2023/05/08 05:22:25;;;;;;;6.00;5.40;;;15.60;97.20;;;16.08;58.12;95170.09;5040013;28;21035;-73
2023/05/08 05:24:52;;;;;;;11.60;6.70;;;15.70;96.90;;;16.22;57.91;95160.63;5038431;28;20985;-74
2023/05/08 05:27:21;;;;;;;20.43;6.57;;;15.90;96.60;;;16.39;57.29;95161.44;5034079;28;20488;-73
2023/05/08 05:29:48;;;;;;;10.13;6.80;;;16.00;96.30;;;16.56;57.46;95167.53;5035449;28;20554;-56
2023/05/08 05:32:15;;;;;;;12.60;7.13;;;16.20;96.30;;;16.78;56.77;95168.63;5033352;28;20883;-72
2023/05/08 05:34:43;;;;;;;10.50;5.90;;;16.40;96.10;;;17.00;56.29;95164.44;5031408;28;20468;-57
2023/05/08 05:37:10;;;;;;;8.80;4.23;;;16.60;95.80;;;17.25;55.77;95168.81;5033314;28;20481;-66
2023/05/08 05:39:37;;;;;;;7.53;4.97;;;16.80;95.10;;;17.47;54.82;95164.53;5029415;28;20510;-71
2023/05/08 05:42:04;;;;;;;5.93;4.30;;;17.00;94.10;;;17.68;54.59;95166.56;5034228;28;21160;-70
2023/05/08 05:44:33;;;;;;;6.10;4.40;;;17.20;94.10;;;17.90;53.69;95163.09;5035475;28;20484;-54
2023/05/08 05:47:00;;;;;;;5.77;3.90;;;17.40;93.30;;;18.11;53.36;95166.97;5034523;28;20483;-56
2023/05/08 05:49:28;;;;;;;7.50;4.53;;;17.60;93.00;;;18.30;52.83;95162.16;5035449;28;20457;-68
2023/05/08 05:51:55;;;;;;;4.60;4.20;;;17.80;92.80;;;18.49;52.66;95166.94;5031796;28;20468;-71
2023/05/08 05:54:22;;;;;;;7.37;4.00;;;18.00;92.10;;;18.64;52.56;95157.13;5035173;28;20527;-57
2023/05/08 05:56:50;;;;;;;3.47;3.17;;;18.20;91.80;;;18.75;51.91;95160.34;5043370;28;20908;-70
2023/05/08 05:59:17;;;;;;;3.53;3.23;;;18.30;91.20;;;18.83;51.93;95156.78;5034709;28;20494;-55
2023/05/08 06:01:46;;;;;;;6.97;3.50;;;18.40;91.00;;;18.93;50.80;95149.34;5029337;28;20457;-67
2023/05/08 06:04:13;;;;;;;8.47;3.47;;;18.50;90.30;;;18.99;50.91;95149.44;5026352;28;20457;-56
2023/05/08 06:06:40;;;;;;;8.90;3.90;;;18.60;90.30;;;19.04;50.94;95148.03;5039551;28;20979;-56
2023/05/08 06:09:08;;;;;;;6.77;4.43;;;18.60;89.50;;;19.06;50.88;95143.38;5037272;28;21086;-67
2023/05/08 06:11:35;;;;;;;3.73;3.43;;;18.60;89.00;;;19.11;50.93;95141.78;5040153;28;20463;-67
2023/05/08 06:14:02;;;;;;;4.40;3.50;;;18.70;89.00;;;19.18;50.76;95136.56;5037038;28;20491;-69
2023/05/08 06:16:30;;;;;;;4.30;3.97;;;18.80;88.50;;;19.24;50.02;95145.63;5038216;28;20964;-58
2023/05/08 06:18:59;;;;;;;4.20;3.90;;;18.80;87.80;;;19.26;50.37;95147.09;5037639;28;20580;-67
2023/05/08 06:21:27;;;;;;;11.00;3.77;;;18.90;87.50;;;19.32;50.17;95142.88;5040581;28;20992;-67
2023/05/08 06:23:54;;;;;;;7.03;4.00;;;18.90;87.00;;;19.37;49.77;95145.78;5037451;28;20509;-68
2023/05/08 06:26:22;;;;;;;11.93;3.67;;;19.00;86.70;;;19.42;49.15;95145.22;5040254;28;20478;-56
2023/05/08 06:28:49;;;;;;;6.20;3.67;;;19.00;85.70;;;19.42;48.86;95147.91;5035354;28;20622;-56
2023/05/08 06:31:17;;;;;;;4.57;3.53;;;19.10;84.60;;;19.41;49.46;95151.56;5039385;28;20450;-67
2023/05/08 06:33:44;;;;;;;13.57;4.77;;;19.00;85.10;;;19.47;49.43;95153.50;5037651;28;20472;-58
2023/05/08 06:36:14;;;;;;;11.53;4.00;;;19.10;85.30;;;19.60;49.55;95150.97;5040406;28;20529;-67
2023/05/08 06:38:41;;;;;;;5.17;4.47;;;19.20;85.30;;;19.73;49.50;95154.81;5037906;28;20483;-57
2023/05/08 06:41:09;;;;;;;8.73;4.13;;;19.30;85.40;;;19.93;49.42;95157.69;5036286;28;21117;-66
2023/05/08 06:43:36;;;;;;;3.90;3.60;;;19.40;85.50;;;20.14;48.79;95152.34;5038203;28;20791;-67
2023/05/08 06:46:04;;;;;;;8.90;4.17;;;19.60;84.70;;;20.37;48.79;95151.28;5035032;28;20457;-68
2023/05/08 06:48:31;;;;;;;7.80;3.67;;;19.90;84.00;;;20.51;48.37;95152.22;5036373;28;20477;-56
2023/05/08 06:50:59;;;;;;;8.67;4.10;;;20.00;83.00;;;20.57;47.91;95148.75;5035814;28;20457;-67
2023/05/08 06:53:28;;;;;;;5.33;3.53;;;20.10;81.80;;;20.64;47.59;95144.28;5034190;28;20497;-68
2023/05/08 06:55:56;;;;;;;8.70;3.43;;;20.10;80.60;;;20.73;47.37;95150.34;5040900;28;20443;-56
2023/05/08 06:58:23;;;;;;;11.07;3.70;;;20.30;80.60;;;20.79;47.23;95146.91;5034242;28;20475;-67
2023/05/08 07:00:51;;;;;;;3.77;3.47;;;20.30;79.70;;;20.87;47.09;95153.94;5036553;28;20484;-67
2023/05/08 07:03:18;;;;;;;5.97;3.90;;;20.40;79.50;;;20.92;46.98;95159.50;5036585;28;20491;-56
2023/05/08 07:05:45;;;;;;;10.00;4.97;;;20.50;79.30;;;20.98;47.05;95153.38;5036331;28;20452;-56
2023/05/08 07:08:13;;;;;;;6.30;3.87;;;20.50;78.90;;;20.98;46.72;95161.41;5034670;28;20550;-66
2023/05/08 07:10:41;;;;;;;10.57;3.60;;;20.60;79.30;;;21.00;46.90;95163.88;5037563;28;20992;-68
2023/05/08 07:13:09;;;;;;;4.57;4.17;;;20.60;78.70;;;21.01;46.96;95157.50;5034677;28;20476;-57
2023/05/08 07:15:37;;;;;;;10.73;3.83;;;20.60;78.40;;;21.05;46.62;95156.91;5036378;28;20940;-56
2023/05/08 07:18:05;;;;;;;4.73;4.27;;;20.60;77.60;;;21.07;46.69;95157.53;5036850;28;20460;-66
2023/05/08 07:20:32;;;;;;;5.77;3.37;;;20.70;77.50;;;21.11;46.52;95155.28;5034427;28;20945;-59
2023/05/08 07:23:00;;;;;;;4.77;3.20;;;20.70;76.90;;;21.14;46.25;95147.69;5036566;28;20608;-68
2023/05/08 07:25:27;;;;;;;3.87;3.47;;;20.80;76.10;;;21.19;46.09;95154.28;5032394;28;20451;-58
2023/05/08 07:27:56;;;;;;;5.53;3.43;;;20.80;75.80;;;21.24;46.12;95159.84;5036050;28;20472;-56
2023/05/08 07:30:24;;;;;;;9.13;4.10;;;20.80;75.40;;;21.28;45.75;95153.09;5030936;28;20510;-58
2023/05/08 07:32:51;;;;;;;6.07;3.77;;;20.90;74.20;;;21.38;45.50;95150.03;5035697;28;20958;-59
2023/05/08 07:35:18;;;;;;;8.10;4.70;;;21.00;74.40;;;21.52;45.49;95159.81;5035971;28;20505;-57
2023/05/08 07:37:45;;;;;;;7.77;4.63;;;21.10;74.90;;;21.68;45.20;95158.63;5032686;28;20488;-58
2023/05/08 07:40:13;;;;;;;3.47;3.13;;;21.20;73.90;;;21.83;44.87;95156.59;5035309;28;20499;-69
2023/05/08 07:42:41;;;;;;;5.47;4.23;;;21.40;73.60;;;21.98;44.49;95164.47;5031890;28;20514;-68
2023/05/08 07:45:12;;;;;;;4.63;4.23;;;21.50;73.20;;;22.16;44.97;95163.03;5037069;28;21063;-56
2023/05/08 07:47:39;;;;;;;9.63;3.77;;;21.70;73.30;;;22.39;44.83;95165.34;5034212;28;20467;-56
2023/05/08 07:50:07;;;;;;;6.20;4.07;;;21.90;73.20;;;22.61;44.16;95163.25;5034246;28;20531;-68
2023/05/08 07:52:35;;;;;;;5.73;3.20;;;22.10;71.80;;;22.77;43.42;95159.31;5035706;28;20472;-69
2023/05/08 07:55:02;;;;;;;8.03;3.53;;;22.30;71.30;;;22.91;44.33;95160.97;5036094;28;20444;-67
2023/05/08 07:57:36;;;;;;;5.60;4.10;;;22.40;71.80;;;23.06;43.60;95165.25;5037191;28;20476;-56
2023/05/08 08:00:04;;;;;;;5.43;3.53;;;22.60;71.70;;;23.25;43.74;95156.38;5036164;28;20559;-56
2023/05/08 08:02:33;;;;;;;3.90;3.60;;;22.70;71.60;;;23.40;42.91;95171.38;5039497;28;20556;-67
2023/05/08 08:05:01;;;;;;;10.40;3.77;;;22.90;69.70;;;23.48;42.83;95163.06;5039376;28;20464;-67
2023/05/08 08:07:28;;;;;;;4.87;3.80;;;23.00;69.90;;;23.52;43.26;95163.50;5041241;28;20479;-68
2023/05/08 08:09:55;;;;;;;10.40;4.47;;;23.00;68.50;;;23.54;42.63;95164.09;5037951;28;20456;-55
2023/05/08 08:12:23;;;;;;;8.83;4.27;;;23.10;69.00;;;23.62;42.53;95162.00;5039581;28;20996;-56
2023/05/08 08:14:50;;;;;;;5.17;3.80;;;23.10;68.50;;;23.74;42.25;95158.63;5039405;28;20460;-67
2023/05/08 08:17:17;;;;;;;6.90;4.27;;;23.20;67.80;;;23.83;42.34;95161.84;5039097;28;20467;-57
2023/05/08 08:19:46;;;;;;;6.63;4.13;;;23.30;67.60;;;23.91;42.22;95162.47;5039059;28;20452;-68
2023/05/08 08:22:13;;;;;;;11.10;3.97;;;23.50;66.30;;;23.93;41.73;95163.06;5034515;28;20478;-67
2023/05/08 08:24:40;;;;;;;5.23;4.30;;;23.50;66.30;;;23.94;42.65;95162.03;5037620;28;21348;-55
2023/05/08 08:27:08;;;;;;;5.03;4.00;;;23.50;66.90;;;23.96;41.65;95153.75;5042564;28;21096;-57
2023/05/08 08:29:35;;;;;;;6.13;4.10;;;23.50;66.00;;;23.97;42.50;95160.78;5038887;28;20585;-67
2023/05/08 08:32:03;;;;;;;6.03;4.07;;;23.50;66.60;;;23.98;42.58;95147.13;5038407;28;20467;-68
2023/05/08 08:34:30;;;;;;;11.10;4.47;;;23.50;66.80;;;23.97;42.17;95145.47;5033403;28;20459;-56
2023/05/08 08:36:59;;;;;;;8.93;3.60;;;23.50;66.80;;;23.96;42.73;95154.56;5038332;28;20449;-56
2023/05/08 08:39:26;;;;;;;14.13;4.27;;;23.50;66.60;;;23.96;42.62;95137.63;5037281;28;20884;-57
2023/05/08 08:41:53;;;;;;;9.63;4.67;;;23.50;67.00;;;23.94;42.80;95132.47;5038522;28;20495;-67
2023/05/08 08:44:21;;;;;;;13.33;3.70;;;23.50;66.90;;;23.90;42.66;95131.25;5039736;28;20457;-55
2023/05/08 08:46:51;;;;;;;9.93;4.90;;;23.50;67.10;;;23.88;42.63;95130.66;5043906;28;20452;-72
2023/05/08 08:49:19;;;;;;;9.93;4.43;;;23.50;67.50;;;23.91;43.69;95122.16;5037854;28;20483;-66
2023/05/08 08:51:50;;;;;;;9.07;4.60;;;23.50;68.20;;;23.94;42.81;95116.38;5033410;28;20453;-67
2023/05/08 08:54:23;;;;;;;10.53;4.77;;;23.50;68.00;;;23.94;43.05;95115.56;5040185;28;21027;-58
2023/05/08 08:56:51;;;;;;;12.53;4.17;;;23.50;67.90;;;23.90;42.89;95111.63;5037371;28;20524;-57
2023/05/08 08:59:18;;;;;;;4.57;3.70;;;23.50;67.40;;;23.78;42.75;95114.16;5038558;28;20448;-69
2023/05/08 09:01:48;;;;;;;6.07;4.40;;;23.40;67.30;;;23.66;42.91;95108.66;5031340;28;20500;-58
2023/05/08 09:04:16;;;;;;;11.60;4.03;;;23.30;67.30;;;23.52;43.77;95105.22;5038211;28;20543;-55
2023/05/08 09:06:44;;;;;;;6.67;5.10;;;23.10;67.30;;;23.37;44.01;95091.25;5038743;28;20448;-64
2023/05/08 09:09:12;;;;;;;6.47;5.23;;;23.00;67.90;;;23.25;44.51;95089.25;5037375;28;20832;-57
2023/05/08 09:11:42;;;;;;;8.77;5.70;;;22.90;68.60;;;23.14;44.06;95076.50;5038331;28;20785;-67
2023/05/08 09:14:09;;;;;;;13.70;6.33;;;22.80;68.70;;;23.01;44.10;95076.53;5038049;28;20875;-69
2023/05/08 09:16:36;;;;;;;10.90;6.03;;;22.60;68.40;;;22.91;44.64;95077.81;5038545;28;20569;-66
2023/05/08 09:19:04;;;;;;;17.37;5.17;;;22.50;69.30;;;22.89;45.35;95074.50;5037213;28;20471;-58
2023/05/08 09:21:31;;;;;;;10.87;4.73;;;22.50;70.20;;;22.92;45.24;95084.00;5036875;28;20487;-69
2023/05/08 09:24:00;;;;;;;8.33;5.33;;;22.50;70.40;;;22.97;45.29;95078.00;5035923;28;20551;-56
2023/05/08 09:26:31;;;;;;;8.37;5.23;;;22.50;71.10;;;23.04;45.67;95086.84;5037476;28;20448;-66
2023/05/08 09:29:11;;;;;;;9.40;4.80;;;22.60;71.00;;;23.11;45.49;95097.56;5037593;28;20495;-67
2023/05/08 09:31:39;;;;;;;4.27;3.97;;;22.60;71.10;;;23.18;45.02;95093.00;5030268;28;20471;-67
2023/05/08 09:34:07;;;;;;;13.33;4.83;;;22.70;70.90;;;23.22;44.99;95097.75;5033710;28;20484;-58
2023/05/08 09:36:35;;;;;;;11.07;4.60;;;22.70;70.90;;;23.27;45.28;95095.22;5033761;28;20574;-66
2023/05/08 09:39:03;;;;;;;4.83;4.23;;;22.80;70.80;;;23.34;45.15;95102.44;5034372;28;20488;-57
2023/05/08 09:41:30;;;;;;;35.03;5.43;;;22.80;70.40;;;23.39;45.10;95098.09;5031596;28;20497;-71
2023/05/08 09:44:02;;;;;;;6.00;4.03;;;22.90;70.40;;;23.48;44.30;95104.00;5040154;28;20476;-70
2023/05/08 09:46:31;;;;;;;5.37;4.30;;;23.00;69.80;;;23.57;44.87;95094.66;5035025;28;20907;-57
2023/05/08 09:49:00;;;;;;;7.07;4.90;;;23.10;69.90;;;23.69;44.47;95096.69;5036153;28;20467;-58
2023/05/08 09:51:28;;;;;;;6.30;4.40;;;23.20;70.10;;;23.82;44.11;95088.50;5028612;28;20467;-57
2023/05/08 09:53:57;;;;;;;12.23;4.00;;;23.30;69.50;;;23.95;44.36;95083.09;5038093;28;20480;-57
2023/05/08 09:56:35;;;;;;;15.60;5.20;;;23.50;70.00;;;24.22;44.11;95082.06;5038291;28;20468;-57
2023/05/08 09:59:05;;;;;;;7.80;5.00;;;23.70;69.60;;;24.44;44.22;95077.91;5032698;28;20907;-57
2023/05/08 10:01:35;;;;;;;11.60;4.07;;;23.90;69.40;;;24.62;43.12;95079.84;5034032;28;20560;-72
2023/05/08 10:04:04;;;;;;;5.97;4.60;;;24.10;68.80;;;24.78;43.04;95085.69;5034880;28;20481;-72
2023/05/08 10:06:32;;;;;;;5.20;4.70;;;24.30;68.40;;;24.89;42.79;95087.63;5035269;28;20451;-57
2023/05/08 10:09:10;;;;;;;14.83;4.53;;;24.40;67.80;;;24.99;42.66;95081.75;5041305;28;20537;-72
2023/05/08 10:11:38;;;;;;;7.73;4.73;;;24.50;67.60;;;25.04;43.12;95081.88;5035692;28;20463;-58
2023/05/08 10:14:05;;;;;;;8.40;4.43;;;24.50;67.40;;;25.08;42.29;95080.34;5037739;28;20464;-57
2023/05/08 10:16:40;;;;;;;8.10;4.97;;;24.60;66.80;;;25.08;43.14;95082.25;5027852;28;21320;-73
2023/05/08 10:19:13;;;;;;;6.73;5.33;;;24.60;67.10;;;25.06;42.90;95069.00;5035007;28;20545;-73
2023/05/08 10:21:43;;;;;;;4.87;4.43;;;24.60;67.20;;;25.10;42.70;95072.06;5032938;28;20984;-56
2023/05/08 10:24:15;;;;;;;11.70;4.17;;;24.60;67.00;;;25.14;42.83;95067.88;5034072;28;20456;-57
2023/05/08 10:26:44;;;;;;;16.10;5.60;;;24.60;66.90;;;25.16;42.70;95066.63;5036804;28;20593;-70